createdAt,value
2019-05-16T00:01:19.298Z,7.79
2019-05-16T00:03:49.155Z,7.64
2019-05-16T00:06:18.601Z,7.90
2019-05-16T00:08:48.246Z,7.81
2019-05-16T00:11:18.059Z,7.78
2019-05-16T00:13:48.924Z,7.85
2019-05-16T00:16:18.795Z,7.75
2019-05-16T00:18:48.381Z,7.73
2019-05-16T00:21:18.128Z,7.80
2019-05-16T00:23:48.618Z,7.78
2019-05-16T00:26:19.732Z,7.58
2019-05-16T00:28:49.235Z,7.74
2019-05-16T00:31:18.523Z,7.71
2019-05-16T00:33:48.685Z,7.66
2019-05-16T00:36:19.349Z,7.62
2019-05-16T00:38:48.702Z,7.40
2019-05-16T00:41:18.170Z,7.60
2019-05-16T00:43:48.508Z,7.51
2019-05-16T00:46:20.051Z,7.66
2019-05-16T00:48:49.647Z,7.67
2019-05-16T00:51:19.105Z,7.47
2019-05-16T00:53:48.502Z,7.64
2019-05-16T00:56:18.795Z,7.62
2019-05-16T00:58:48.888Z,7.56
2019-05-16T01:01:18.969Z,7.66
2019-05-16T01:03:48.599Z,7.64
2019-05-16T01:06:22.624Z,7.66
2019-05-16T01:08:49.043Z,7.64
2019-05-16T01:11:18.736Z,7.64
2019-05-16T01:13:48.691Z,7.48
2019-05-16T01:16:18.742Z,7.51
2019-05-16T01:18:48.784Z,7.46
2019-05-16T01:21:18.751Z,7.58
2019-05-16T01:23:48.360Z,7.54
2019-05-16T01:26:18.572Z,7.62
2019-05-16T01:28:48.529Z,7.76
2019-05-16T01:31:19.153Z,7.69
2019-05-16T01:33:48.784Z,7.76
2019-05-16T01:36:31.810Z,7.86
2019-05-16T01:38:49.080Z,7.94
2019-05-16T01:41:18.328Z,7.96
2019-05-16T01:43:48.339Z,7.83
2019-05-16T01:46:18.245Z,7.64
2019-05-16T01:48:48.542Z,7.55
2019-05-16T01:51:18.605Z,7.53
2019-05-16T01:53:49.043Z,7.48
2019-05-16T01:56:18.356Z,7.42
2019-05-16T01:58:49.050Z,7.42
2019-05-16T02:01:19.239Z,7.38
2019-05-16T02:03:49.188Z,7.38
2019-05-16T02:06:18.595Z,7.31
2019-05-16T02:08:48.729Z,7.38
2019-05-16T02:11:18.355Z,7.32
2019-05-16T02:13:48.472Z,7.33
2019-05-16T02:16:18.798Z,7.34
2019-05-16T02:18:48.858Z,7.35
2019-05-16T02:21:18.483Z,7.25
2019-05-16T02:23:49.011Z,7.27
2019-05-16T02:26:19.293Z,7.31
2019-05-16T02:28:50.728Z,7.38
2019-05-16T02:31:22.796Z,7.23
2019-05-16T02:33:51.229Z,7.26
2019-05-16T02:36:21.761Z,7.34
2019-05-16T02:38:55.523Z,7.40
2019-05-16T02:41:23.469Z,7.47
2019-05-16T02:43:52.754Z,7.49
2019-05-16T02:46:22.127Z,7.45
2019-05-16T02:48:52.049Z,7.51
2019-05-16T02:51:21.720Z,7.42
2019-05-16T02:53:51.356Z,7.38
2019-05-16T02:56:21.291Z,7.36
2019-05-16T02:58:52.182Z,7.43
2019-05-16T03:01:22.136Z,7.52
2019-05-16T03:03:53.019Z,7.43
2019-05-16T03:06:22.500Z,7.40
2019-05-16T03:08:54.341Z,7.49
2019-05-16T03:11:24.847Z,7.43
2019-05-16T03:13:55.489Z,7.51
2019-05-16T03:16:26.928Z,7.44
2019-05-16T03:18:56.687Z,7.52
2019-05-16T03:21:26.671Z,7.55
2019-05-16T03:23:56.155Z,7.61
2019-05-16T03:26:25.455Z,7.62
2019-05-16T03:28:54.730Z,7.63
2019-05-16T03:31:25.261Z,7.46
2019-05-16T03:33:59.756Z,7.58
2019-05-16T03:36:26.009Z,7.44
2019-05-16T03:38:55.350Z,7.36
2019-05-16T03:41:25.716Z,7.52
2019-05-16T03:43:54.989Z,7.42
2019-05-16T03:46:24.364Z,7.35
2019-05-16T03:48:53.657Z,7.42
2019-05-16T03:51:22.906Z,7.33
2019-05-16T03:53:52.203Z,7.33
2019-05-16T03:56:22.062Z,7.26
2019-05-16T03:58:51.531Z,7.28
2019-05-16T04:01:21.188Z,7.42
2019-05-16T04:03:51.370Z,7.46
2019-05-16T04:06:22.155Z,7.39
2019-05-16T04:08:51.673Z,7.38
2019-05-16T04:11:23.315Z,7.37
2019-05-16T04:13:51.954Z,7.36
2019-05-16T04:16:21.275Z,7.50
2019-05-16T04:18:51.366Z,7.55
2019-05-16T04:21:21.982Z,7.48
2019-05-16T04:23:51.598Z,7.48
2019-05-16T04:26:21.819Z,7.52
2019-05-16T04:28:51.748Z,7.60
2019-05-16T04:31:22.776Z,7.44
2019-05-16T04:33:52.223Z,7.46
2019-05-16T04:36:21.619Z,7.50
2019-05-16T04:38:51.603Z,7.49
2019-05-16T04:41:21.441Z,7.79
2019-05-16T04:43:51.121Z,7.87
2019-05-16T04:46:21.598Z,8.03
2019-05-16T04:48:52.093Z,8.00
2019-05-16T04:51:23.064Z,8.00
2019-05-16T04:53:53.325Z,8.03
2019-05-16T04:56:24.657Z,7.89
2019-05-16T04:58:55.450Z,8.13
2019-05-16T05:01:25.504Z,7.95
2019-05-16T05:04:06.710Z,7.97
2019-05-16T05:06:31.297Z,8.18
2019-05-16T05:09:03.509Z,8.18
2019-05-16T05:11:33.749Z,8.08
2019-05-16T05:14:05.350Z,8.08
2019-05-16T05:16:35.465Z,7.90
2019-05-16T05:19:05.356Z,7.87
2019-05-16T05:21:35.057Z,8.14
2019-05-16T05:24:04.460Z,8.37
2019-05-16T05:26:33.987Z,8.24
2019-05-16T05:29:04.374Z,8.07
2019-05-16T05:31:35.519Z,8.01
2019-05-16T05:34:05.404Z,7.97
2019-05-16T05:36:34.684Z,8.01
2019-05-16T05:39:11.591Z,8.08
2019-05-16T05:41:40.131Z,8.01
2019-05-16T05:44:10.698Z,8.01
2019-05-16T05:46:40.664Z,8.37
2019-05-16T05:49:11.876Z,8.15
2019-05-16T05:51:41.572Z,8.25
2019-05-16T05:54:11.142Z,7.98
2019-05-16T05:56:41.066Z,8.04
2019-05-16T05:59:11.352Z,8.14
2019-05-16T06:01:41.023Z,8.14
2019-05-16T06:04:10.680Z,8.11
2019-05-16T06:06:41.859Z,8.13
2019-05-16T06:09:25.373Z,8.49
2019-05-16T06:11:42.167Z,8.07
2019-05-16T06:14:11.433Z,8.30
2019-05-16T06:16:40.704Z,8.25
2019-05-16T06:19:10.963Z,8.37
2019-05-16T06:21:44.609Z,8.63
2019-05-16T06:24:11.499Z,8.40
2019-05-16T06:26:40.800Z,8.38
2019-05-16T06:29:10.572Z,8.36
2019-05-16T06:31:41.514Z,8.63
2019-05-16T06:34:14.990Z,8.69
2019-05-16T06:36:42.226Z,8.82
2019-05-16T06:39:12.980Z,8.73
2019-05-16T06:41:42.303Z,8.82
2019-05-16T06:44:11.602Z,8.71
2019-05-16T06:46:56.472Z,8.76
2019-05-16T06:49:12.063Z,8.89
2019-05-16T06:51:41.335Z,9.00
2019-05-16T06:54:10.640Z,9.31
2019-05-16T06:56:40.239Z,9.37
2019-05-16T06:59:10.333Z,9.40
2019-05-16T07:01:40.474Z,9.33
2019-05-16T07:04:10.607Z,9.57
2019-05-16T07:06:54.785Z,10.05
2019-05-16T07:09:10.985Z,10.56
2019-05-16T07:11:40.286Z,10.29
2019-05-16T07:14:10.618Z,10.18
2019-05-16T07:16:40.636Z,9.72
2019-05-16T07:19:10.575Z,9.87
2019-05-16T07:21:41.704Z,9.47
2019-05-16T07:24:11.144Z,9.40
2019-05-16T07:26:41.856Z,9.27
2019-05-16T07:29:11.248Z,9.34
2019-05-16T07:31:40.709Z,9.72
2019-05-16T07:34:11.583Z,10.19
2019-05-16T07:36:41.116Z,10.09
2019-05-16T07:39:10.959Z,10.17
2019-05-16T07:41:40.389Z,10.48
2019-05-16T07:44:11.169Z,11.30
2019-05-16T07:46:44.462Z,11.92
2019-05-16T07:49:11.663Z,11.99
2019-05-16T07:51:41.104Z,12.39
2019-05-16T07:54:10.637Z,11.71
2019-05-16T07:56:40.711Z,11.08
2019-05-16T07:59:10.582Z,11.18
2019-05-16T08:01:42.919Z,10.85
2019-05-16T08:04:10.971Z,10.80
2019-05-16T08:06:41.519Z,10.66
2019-05-16T08:09:12.715Z,10.65
2019-05-16T08:11:42.149Z,11.22
2019-05-16T08:14:11.458Z,10.98
2019-05-16T08:16:41.060Z,10.50
2019-05-16T08:19:10.759Z,10.51
2019-05-16T08:21:41.135Z,9.89
2019-05-16T08:24:15.090Z,10.04
2019-05-16T08:26:43.153Z,10.29
2019-05-16T08:29:13.550Z,10.33
2019-05-16T08:31:43.413Z,10.34
2019-05-16T08:34:13.096Z,10.16
2019-05-16T08:36:42.462Z,10.05
2019-05-16T08:39:11.932Z,10.11
2019-05-16T08:41:42.472Z,10.24
2019-05-16T08:44:12.607Z,10.56
2019-05-16T08:46:42.628Z,10.81
2019-05-16T08:49:12.680Z,11.20
2019-05-16T08:51:42.796Z,11.26
2019-05-16T08:54:14.196Z,11.29
2019-05-16T08:56:44.923Z,11.04
2019-05-16T08:59:14.316Z,10.98
2019-05-16T09:01:52.128Z,10.81
2019-05-16T09:04:14.607Z,10.74
2019-05-16T09:06:43.861Z,10.73
2019-05-16T09:09:29.722Z,10.94
2019-05-16T09:11:47.555Z,11.04
2019-05-16T09:14:17.185Z,11.03
2019-05-16T09:16:47.949Z,10.62
2019-05-16T09:19:17.359Z,10.49
2019-05-16T09:21:47.553Z,10.44
2019-05-16T09:24:17.969Z,10.39
2019-05-16T09:26:47.677Z,10.94
2019-05-16T09:29:17.048Z,10.94
2019-05-16T09:32:07.397Z,10.74
2019-05-16T09:34:18.905Z,10.68
2019-05-16T09:36:48.349Z,10.48
2019-05-16T09:39:17.743Z,10.16
2019-05-16T09:41:54.447Z,9.99
2019-05-16T09:44:18.564Z,10.02
2019-05-16T09:46:48.045Z,9.92
2019-05-16T09:49:24.228Z,9.98
2019-05-16T09:51:48.335Z,10.25
2019-05-16T09:54:17.616Z,10.38
2019-05-16T09:56:46.895Z,10.59
2019-05-16T09:59:17.275Z,10.48
2019-05-16T10:01:47.823Z,11.14
2019-05-16T10:04:17.665Z,10.83
2019-05-16T10:06:47.091Z,10.92
2019-05-16T10:09:17.456Z,10.83
2019-05-16T10:11:49.472Z,10.40
2019-05-16T10:14:18.082Z,10.51
2019-05-16T10:16:47.898Z,10.27
2019-05-16T10:19:17.354Z,10.42
2019-05-16T10:21:46.715Z,10.90
2019-05-16T10:24:16.001Z,11.15
2019-05-16T10:26:47.234Z,11.15
2019-05-16T10:29:18.410Z,10.87
2019-05-16T10:31:52.908Z,10.52
2019-05-16T10:34:18.355Z,11.14
2019-05-16T10:36:47.636Z,11.00
2019-05-16T10:39:16.917Z,11.09
2019-05-16T10:41:46.753Z,10.91
2019-05-16T10:44:17.488Z,11.01
2019-05-16T10:46:47.890Z,11.42
2019-05-16T10:49:32.847Z,11.95
2019-05-16T10:51:48.561Z,11.66
2019-05-16T10:54:18.587Z,11.90
2019-05-16T10:56:48.407Z,10.95
2019-05-16T10:59:51.109Z,11.03
2019-05-16T11:01:48.799Z,11.47
2019-05-16T11:04:28.552Z,11.14
2019-05-16T11:06:49.185Z,10.73
2019-05-16T11:09:18.452Z,10.32
2019-05-16T11:11:47.858Z,9.97
2019-05-16T11:14:17.545Z,10.20
2019-05-16T11:16:47.493Z,9.91
2019-05-16T11:19:23.472Z,10.02
2019-05-16T11:21:47.950Z,9.74
2019-05-16T11:24:17.337Z,9.97
2019-05-16T11:26:47.337Z,10.02
2019-05-16T11:29:16.904Z,9.85
2019-05-16T11:31:46.917Z,9.71
2019-05-16T11:34:17.862Z,9.72
2019-05-16T11:36:47.923Z,9.70
2019-05-16T11:39:17.546Z,9.59
2019-05-16T11:41:47.495Z,9.44
2019-05-16T11:44:17.602Z,9.36
2019-05-16T11:46:48.973Z,9.55
2019-05-16T11:49:18.228Z,9.77
2019-05-16T11:51:47.527Z,9.55
2019-05-16T11:54:16.816Z,9.25
2019-05-16T11:56:46.468Z,9.33
2019-05-16T11:59:15.845Z,9.23
2019-05-16T12:01:47.480Z,9.04
2019-05-16T12:04:17.520Z,9.06
2019-05-16T12:06:47.011Z,9.40
2019-05-16T12:09:17.791Z,9.42
2019-05-16T12:11:47.447Z,9.46
2019-05-16T12:14:16.903Z,9.82
2019-05-16T12:16:47.246Z,9.54
2019-05-16T12:19:18.123Z,9.19
2019-05-16T12:21:47.744Z,9.18
2019-05-16T12:24:31.748Z,9.22
2019-05-16T12:26:48.222Z,8.84
2019-05-16T12:29:17.600Z,9.08
2019-05-16T12:31:57.482Z,8.91
2019-05-16T12:34:17.962Z,9.29
2019-05-16T12:36:47.439Z,8.94
2019-05-16T12:39:18.042Z,8.95
2019-05-16T12:41:49.111Z,8.80
2019-05-16T12:44:18.378Z,8.96
2019-05-16T12:46:47.677Z,8.92
2019-05-16T12:49:17.546Z,9.05
2019-05-16T12:51:46.961Z,9.29
2019-05-16T12:54:18.231Z,9.25
2019-05-16T12:56:48.271Z,9.02
2019-05-16T12:59:21.060Z,9.20
2019-05-16T13:01:48.862Z,9.27
2019-05-16T13:04:19.032Z,9.23
2019-05-16T13:06:48.689Z,9.36
2019-05-16T13:09:18.626Z,9.45
2019-05-16T13:11:48.154Z,9.30
2019-05-16T13:14:17.414Z,9.48
2019-05-16T13:16:47.933Z,9.56
2019-05-16T13:19:18.256Z,9.41
2019-05-16T13:21:47.735Z,9.37
2019-05-16T13:24:18.705Z,9.69
2019-05-16T13:26:48.306Z,9.24
2019-05-16T13:29:18.206Z,9.15
2019-05-16T13:31:48.132Z,9.07
2019-05-16T13:34:17.914Z,9.01
2019-05-16T13:36:47.687Z,9.34
2019-05-16T13:39:17.343Z,8.96
2019-05-16T13:41:46.683Z,8.89
2019-05-16T13:44:22.720Z,8.83
2019-05-16T13:46:46.954Z,8.90
2019-05-16T13:49:18.085Z,9.18
2019-05-16T13:51:47.450Z,9.20
2019-05-16T13:54:17.731Z,9.24
2019-05-16T13:56:48.315Z,9.41
2019-05-16T13:59:18.094Z,9.29
2019-05-16T14:01:48.473Z,9.34
2019-05-16T14:04:17.722Z,9.23
2019-05-16T14:06:47.861Z,9.20
2019-05-16T14:09:17.726Z,9.07
2019-05-16T14:11:47.142Z,9.03
2019-05-16T14:14:32.091Z,8.69
2019-05-16T14:16:47.584Z,8.71
2019-05-16T14:19:17.641Z,8.50
2019-05-16T14:21:48.002Z,8.55
2019-05-16T14:24:18.784Z,8.65
2019-05-16T14:26:48.092Z,8.59
2019-05-16T14:29:17.852Z,8.57
2019-05-16T14:31:50.555Z,8.56
2019-05-16T14:34:19.874Z,8.60
2019-05-16T14:36:49.190Z,8.61
2019-05-16T14:39:19.847Z,8.70
2019-05-16T14:41:49.346Z,8.75
2019-05-16T14:44:18.740Z,8.74
2019-05-16T14:46:47.993Z,8.73
2019-05-16T14:49:18.157Z,8.61
2019-05-16T14:51:47.935Z,8.55
2019-05-16T14:54:17.282Z,8.44
2019-05-16T14:56:47.577Z,8.58
2019-05-16T14:59:17.041Z,8.54
2019-05-16T15:01:47.294Z,8.46
2019-05-16T15:04:16.690Z,8.43
2019-05-16T15:06:47.002Z,8.61
2019-05-16T15:09:18.037Z,8.58
2019-05-16T15:11:47.311Z,8.57
2019-05-16T15:14:17.416Z,8.57
2019-05-16T15:16:51.824Z,8.69
2019-05-16T15:19:19.966Z,8.68
2019-05-16T15:21:52.072Z,8.70
2019-05-16T15:24:21.370Z,8.60
2019-05-16T15:26:52.595Z,8.63
2019-05-16T15:29:23.539Z,8.62
2019-05-16T15:31:54.421Z,8.70
2019-05-16T15:34:29.849Z,8.71
2019-05-16T15:37:00.112Z,8.81
2019-05-16T15:39:31.142Z,8.80
2019-05-16T15:42:01.837Z,8.94
2019-05-16T15:44:32.073Z,8.98
2019-05-16T15:47:02.083Z,8.98
2019-05-16T15:49:31.838Z,8.93
2019-05-16T15:52:02.295Z,8.79
2019-05-16T15:54:32.776Z,8.95
2019-05-16T15:57:02.043Z,8.79
2019-05-16T15:59:32.203Z,8.88
2019-05-16T16:02:03.256Z,8.74
2019-05-16T16:04:32.558Z,8.77
2019-05-16T16:07:01.840Z,8.68
2019-05-16T16:09:31.129Z,8.69
2019-05-16T16:12:01.502Z,8.68
2019-05-16T16:14:30.795Z,8.73
2019-05-16T16:17:02.043Z,8.68
2019-05-16T16:19:31.419Z,8.51
2019-05-16T16:22:00.765Z,8.57
2019-05-16T16:24:30.882Z,8.44
2019-05-16T16:27:00.316Z,8.51
2019-05-16T16:29:32.976Z,8.57
2019-05-16T16:32:02.017Z,8.55
2019-05-16T16:34:31.491Z,8.29
2019-05-16T16:37:00.782Z,8.33
2019-05-16T16:39:30.085Z,8.44
2019-05-16T16:41:59.357Z,8.31
2019-05-16T16:44:28.626Z,8.35
2019-05-16T16:46:57.908Z,8.44
2019-05-16T16:49:27.982Z,8.45
2019-05-16T16:51:57.542Z,8.45
2019-05-16T16:54:27.690Z,8.45
2019-05-16T16:56:57.636Z,8.47
2019-05-16T16:59:28.058Z,8.50
2019-05-16T17:01:59.487Z,8.40
2019-05-16T17:04:28.841Z,8.28
2019-05-16T17:06:58.139Z,8.33
2019-05-16T17:09:27.666Z,8.29
2019-05-16T17:11:57.970Z,8.24
2019-05-16T17:14:27.332Z,8.10
2019-05-16T17:16:57.480Z,8.11
2019-05-16T17:19:27.022Z,8.04
2019-05-16T17:22:11.972Z,7.95
2019-05-16T17:24:31.245Z,8.01
2019-05-16T17:27:01.065Z,7.92
2019-05-16T17:29:30.360Z,7.94
2019-05-16T17:32:05.757Z,8.03
2019-05-16T17:34:30.860Z,8.15
2019-05-16T17:37:00.128Z,8.13
2019-05-16T17:39:29.446Z,8.22
2019-05-16T17:41:58.986Z,8.15
2019-05-16T17:44:28.358Z,8.07
2019-05-16T17:46:57.789Z,8.00
2019-05-16T17:49:27.134Z,8.07
2019-05-16T17:51:56.790Z,7.90
2019-05-16T17:54:26.731Z,7.85
2019-05-16T17:56:56.732Z,7.95
2019-05-16T17:59:27.512Z,7.81
2019-05-16T18:01:57.062Z,7.82
2019-05-16T18:04:28.181Z,7.87
2019-05-16T18:06:59.195Z,7.89
2019-05-16T18:09:29.966Z,7.91
2019-05-16T18:11:59.289Z,7.77
2019-05-16T18:14:28.663Z,7.69
2019-05-16T18:17:02.152Z,7.73
2019-05-16T18:19:31.536Z,7.77
2019-05-16T18:22:00.858Z,7.79
2019-05-16T18:24:30.274Z,7.83
2019-05-16T18:26:59.671Z,7.78
2019-05-16T18:29:28.968Z,7.73
2019-05-16T18:31:58.284Z,7.88
2019-05-16T18:34:28.097Z,7.75
2019-05-16T18:36:57.588Z,7.72
2019-05-16T18:39:27.269Z,7.85
2019-05-16T18:41:56.724Z,7.79
2019-05-16T18:44:27.276Z,7.73
2019-05-16T18:47:04.774Z,7.74
2019-05-16T18:49:27.802Z,7.85
2019-05-16T18:51:57.115Z,7.76
2019-05-16T18:54:26.710Z,7.79
2019-05-16T18:56:57.860Z,7.74
2019-05-16T18:59:27.317Z,7.62
2019-05-16T19:01:56.701Z,7.68
2019-05-16T19:04:27.456Z,7.61
2019-05-16T19:06:59.624Z,7.71
2019-05-16T19:09:29.144Z,7.75
2019-05-16T19:11:59.209Z,7.71
2019-05-16T19:14:28.887Z,7.64
2019-05-16T19:16:58.191Z,7.69
2019-05-16T19:19:28.273Z,7.73
2019-05-16T19:21:59.538Z,7.77
2019-05-16T19:24:28.757Z,7.83
2019-05-16T19:26:58.023Z,7.78
2019-05-16T19:29:28.834Z,7.77
2019-05-16T19:31:58.134Z,7.78
2019-05-16T19:34:29.269Z,7.84
2019-05-16T19:36:58.510Z,7.80
2019-05-16T19:39:28.764Z,7.82
2019-05-16T19:41:58.160Z,7.84
2019-05-16T19:44:27.458Z,7.91
2019-05-16T19:46:58.074Z,7.95
2019-05-16T19:49:27.740Z,7.88
2019-05-16T19:51:57.138Z,7.87
2019-05-16T19:54:28.048Z,7.88
2019-05-16T19:56:57.784Z,7.90
2019-05-16T19:59:27.299Z,7.90
2019-05-16T20:01:57.031Z,7.86
2019-05-16T20:04:27.362Z,7.96
2019-05-16T20:06:57.920Z,7.85
2019-05-16T20:09:30.163Z,7.97
2019-05-16T20:11:58.225Z,7.95
2019-05-16T20:14:27.510Z,8.04
2019-05-16T20:16:56.791Z,8.07
2019-05-16T20:19:26.782Z,8.02
2019-05-16T20:21:58.115Z,8.11
2019-05-16T20:24:27.334Z,8.01
2019-05-16T20:26:57.209Z,7.95
2019-05-16T20:29:27.348Z,7.98
2019-05-16T20:31:59.507Z,8.08
2019-05-16T20:34:27.867Z,8.18
2019-05-16T20:36:57.326Z,8.12
2019-05-16T20:39:26.856Z,8.03
2019-05-16T20:41:59.689Z,8.14
2019-05-16T20:44:28.449Z,8.18
2019-05-16T20:46:57.712Z,8.10
2019-05-16T20:49:27.198Z,8.12
2019-05-16T20:51:57.940Z,8.08
2019-05-16T20:54:27.289Z,7.99
2019-05-16T20:56:57.396Z,8.11
2019-05-16T20:59:27.326Z,8.12
2019-05-16T21:01:57.506Z,8.12
2019-05-16T21:04:26.864Z,8.21
2019-05-16T21:07:10.031Z,8.20
2019-05-16T21:09:36.882Z,8.15
2019-05-16T21:12:08.300Z,8.16
2019-05-16T21:14:37.403Z,8.06
2019-05-16T21:17:06.842Z,8.18
2019-05-16T21:19:36.299Z,7.99
2019-05-16T21:22:07.341Z,8.07
2019-05-16T21:24:37.290Z,8.00
2019-05-16T21:27:06.887Z,7.93
2019-05-16T21:29:36.963Z,7.88
2019-05-16T21:32:07.375Z,7.96
2019-05-16T21:34:36.863Z,7.99
2019-05-16T21:37:14.574Z,7.94
2019-05-16T21:39:37.315Z,8.04
2019-05-16T21:42:07.813Z,8.06
2019-05-16T21:44:37.534Z,8.14
2019-05-16T21:47:06.823Z,8.16
2019-05-16T21:49:37.018Z,8.17
2019-05-16T21:52:06.951Z,8.09
2019-05-16T21:54:36.814Z,8.13
2019-05-16T21:57:07.740Z,8.17
2019-05-16T21:59:37.683Z,8.17
2019-05-16T22:02:07.381Z,8.13
2019-05-16T22:04:36.872Z,8.27
2019-05-16T22:07:07.229Z,8.15
2019-05-16T22:09:37.189Z,8.16
2019-05-16T22:12:06.927Z,8.16
2019-05-16T22:14:46.521Z,8.24
2019-05-16T22:17:16.937Z,8.19
2019-05-16T22:19:46.936Z,8.15
2019-05-16T22:22:16.565Z,8.12
2019-05-16T22:24:46.171Z,8.22
2019-05-16T22:27:17.373Z,8.10
2019-05-16T22:29:46.881Z,8.23
2019-05-16T22:32:16.826Z,8.28
2019-05-16T22:34:47.664Z,8.28
2019-05-16T22:37:17.456Z,8.37
2019-05-16T22:39:48.376Z,8.34
2019-05-16T22:42:19.508Z,8.35
2019-05-16T22:44:50.322Z,8.48
2019-05-16T22:47:21.781Z,8.59
2019-05-16T22:49:56.604Z,8.43
2019-05-16T22:52:26.584Z,8.43
2019-05-16T22:54:56.707Z,8.43
2019-05-16T22:57:26.887Z,8.42
2019-05-16T22:59:56.958Z,8.33
2019-05-16T23:02:27.417Z,8.32
2019-05-16T23:04:56.831Z,8.33
2019-05-16T23:07:27.469Z,8.29
2019-05-16T23:09:56.878Z,8.24
2019-05-16T23:12:26.616Z,8.19
2019-05-16T23:14:56.924Z,8.18
2019-05-16T23:17:26.818Z,8.25
2019-05-16T23:19:56.778Z,8.24
2019-05-16T23:22:27.427Z,8.30
2019-05-16T23:24:57.107Z,8.30
2019-05-16T23:27:27.338Z,8.24
2019-05-16T23:29:56.947Z,8.21
2019-05-16T23:32:27.082Z,8.22
2019-05-16T23:34:57.249Z,8.25
2019-05-16T23:37:27.411Z,8.27
2019-05-16T23:39:58.276Z,8.13
2019-05-16T23:42:27.579Z,8.13
2019-05-16T23:44:56.864Z,8.17
2019-05-16T23:47:26.271Z,8.23
2019-05-16T23:49:56.793Z,8.17
2019-05-16T23:52:27.328Z,8.21
2019-05-16T23:54:57.071Z,8.22
2019-05-16T23:57:26.950Z,8.12
2019-05-16T23:59:56.752Z,8.06
